sensor_id;sensor_type;location;lat;lon;timestamp;P1;durP1;ratioP1;P2;durP2;ratioP2
42134;SDS011;28312;43.460;11.810;2023-12-07T00:00:21;4.00;;;1.50;;
42134;SDS011;28312;43.460;11.810;2023-12-07T00:04:25;4.20;;;1.75;;
42134;SDS011;28312;43.460;11.810;2023-12-07T00:08:28;3.88;;;1.83;;
42134;SDS011;28312;43.460;11.810;2023-12-07T00:12:32;3.72;;;2.13;;
42134;SDS011;28312;43.460;11.810;2023-12-07T00:16:39;4.65;;;2.30;;
42134;SDS011;28312;43.460;11.810;2023-12-07T00:20:44;4.55;;;2.63;;
42134;SDS011;28312;43.460;11.810;2023-12-07T00:24:47;3.67;;;1.80;;
42134;SDS011;28312;43.460;11.810;2023-12-07T00:28:51;4.18;;;2.47;;
42134;SDS011;28312;43.460;11.810;2023-12-07T00:32:55;5.60;;;3.50;;
42134;SDS011;28312;43.460;11.810;2023-12-07T00:36:58;4.68;;;2.20;;
42134;SDS011;28312;43.460;11.810;2023-12-07T00:41:02;3.53;;;1.88;;
42134;SDS011;28312;43.460;11.810;2023-12-07T00:45:06;7.15;;;3.20;;
42134;SDS011;28312;43.460;11.810;2023-12-07T00:49:10;3.78;;;2.47;;
42134;SDS011;28312;43.460;11.810;2023-12-07T00:53:14;3.88;;;2.00;;
42134;SDS011;28312;43.460;11.810;2023-12-07T00:57:18;5.35;;;3.08;;
42134;SDS011;28312;43.460;11.810;2023-12-07T01:01:21;4.05;;;1.92;;
42134;SDS011;28312;43.460;11.810;2023-12-07T01:05:25;7.88;;;3.20;;
42134;SDS011;28312;43.460;11.810;2023-12-07T01:09:29;5.15;;;2.45;;
42134;SDS011;28312;43.460;11.810;2023-12-07T01:13:33;5.75;;;3.00;;
42134;SDS011;28312;43.460;11.810;2023-12-07T01:17:39;3.47;;;1.80;;
42134;SDS011;28312;43.460;11.810;2023-12-07T01:21:42;3.08;;;1.60;;
42134;SDS011;28312;43.460;11.810;2023-12-07T01:25:46;3.08;;;1.50;;
42134;SDS011;28312;43.460;11.810;2023-12-07T01:29:51;4.18;;;2.05;;
42134;SDS011;28312;43.460;11.810;2023-12-07T01:33:54;5.75;;;2.47;;
42134;SDS011;28312;43.460;11.810;2023-12-07T01:37:58;3.47;;;1.67;;
42134;SDS011;28312;43.460;11.810;2023-12-07T01:42:01;5.30;;;2.92;;
42134;SDS011;28312;43.460;11.810;2023-12-07T01:46:05;3.67;;;1.85;;
42134;SDS011;28312;43.460;11.810;2023-12-07T01:50:09;5.78;;;2.17;;
42134;SDS011;28312;43.460;11.810;2023-12-07T01:54:13;3.63;;;1.67;;
42134;SDS011;28312;43.460;11.810;2023-12-07T01:58:17;3.95;;;1.80;;
42134;SDS011;28312;43.460;11.810;2023-12-07T02:02:21;3.35;;;1.50;;
42134;SDS011;28312;43.460;11.810;2023-12-07T02:06:28;2.57;;;1.30;;
42134;SDS011;28312;43.460;11.810;2023-12-07T02:10:31;2.45;;;1.33;;
42134;SDS011;28312;43.460;11.810;2023-12-07T02:14:35;2.83;;;1.42;;
42134;SDS011;28312;43.460;11.810;2023-12-07T02:18:43;2.83;;;1.70;;
42134;SDS011;28312;43.460;11.810;2023-12-07T02:22:53;3.85;;;1.75;;
42134;SDS011;28312;43.460;11.810;2023-12-07T02:26:58;3.38;;;1.58;;
42134;SDS011;28312;43.460;11.810;2023-12-07T02:31:02;2.90;;;1.70;;
42134;SDS011;28312;43.460;11.810;2023-12-07T02:35:06;2.60;;;1.40;;
42134;SDS011;28312;43.460;11.810;2023-12-07T02:43:17;2.40;;;1.38;;
42134;SDS011;28312;43.460;11.810;2023-12-07T02:47:21;2.33;;;1.30;;
42134;SDS011;28312;43.460;11.810;2023-12-07T02:51:25;5.75;;;2.05;;
42134;SDS011;28312;43.460;11.810;2023-12-07T02:55:28;3.30;;;1.45;;
42134;SDS011;28312;43.460;11.810;2023-12-07T02:59:32;2.85;;;1.52;;
42134;SDS011;28312;43.460;11.810;2023-12-07T03:03:35;2.75;;;1.40;;
42134;SDS011;28312;43.460;11.810;2023-12-07T03:07:41;3.05;;;1.50;;
42134;SDS011;28312;43.460;11.810;2023-12-07T03:11:45;4.10;;;1.85;;
42134;SDS011;28312;43.460;11.810;2023-12-07T03:15:48;5.28;;;2.72;;
42134;SDS011;28312;43.460;11.810;2023-12-07T03:19:52;3.58;;;2.17;;
42134;SDS011;28312;43.460;11.810;2023-12-07T03:23:55;3.63;;;1.75;;
42134;SDS011;28312;43.460;11.810;2023-12-07T03:27:59;3.25;;;2.03;;
42134;SDS011;28312;43.460;11.810;2023-12-07T03:32:02;3.13;;;1.95;;
42134;SDS011;28312;43.460;11.810;2023-12-07T03:36:12;4.15;;;1.80;;
42134;SDS011;28312;43.460;11.810;2023-12-07T03:40:15;3.53;;;1.67;;
42134;SDS011;28312;43.460;11.810;2023-12-07T03:44:19;2.35;;;1.23;;
42134;SDS011;28312;43.460;11.810;2023-12-07T03:48:23;2.97;;;1.42;;
42134;SDS011;28312;43.460;11.810;2023-12-07T03:52:26;2.80;;;1.17;;
42134;SDS011;28312;43.460;11.810;2023-12-07T03:56:32;2.30;;;1.20;;
42134;SDS011;28312;43.460;11.810;2023-12-07T04:00:36;3.03;;;1.50;;
42134;SDS011;28312;43.460;11.810;2023-12-07T04:04:39;1.88;;;1.27;;
42134;SDS011;28312;43.460;11.810;2023-12-07T04:08:43;2.28;;;1.23;;
42134;SDS011;28312;43.460;11.810;2023-12-07T04:12:47;2.13;;;1.20;;
42134;SDS011;28312;43.460;11.810;2023-12-07T04:16:51;3.00;;;1.60;;
42134;SDS011;28312;43.460;11.810;2023-12-07T04:20:56;2.65;;;1.42;;
42134;SDS011;28312;43.460;11.810;2023-12-07T04:25:00;3.75;;;1.63;;
42134;SDS011;28312;43.460;11.810;2023-12-07T04:29:04;3.53;;;1.45;;
42134;SDS011;28312;43.460;11.810;2023-12-07T04:33:08;2.63;;;1.15;;
42134;SDS011;28312;43.460;11.810;2023-12-07T04:37:14;2.15;;;0.95;;
42134;SDS011;28312;43.460;11.810;2023-12-07T04:41:17;2.35;;;1.13;;
42134;SDS011;28312;43.460;11.810;2023-12-07T04:45:21;1.48;;;0.98;;
42134;SDS011;28312;43.460;11.810;2023-12-07T04:49:25;1.70;;;0.90;;
42134;SDS011;28312;43.460;11.810;2023-12-07T04:53:30;2.88;;;1.33;;
42134;SDS011;28312;43.460;11.810;2023-12-07T04:57:34;2.55;;;1.30;;
42134;SDS011;28312;43.460;11.810;2023-12-07T05:01:38;3.75;;;1.30;;
42134;SDS011;28312;43.460;11.810;2023-12-07T05:05:41;1.35;;;0.90;;
42134;SDS011;28312;43.460;11.810;2023-12-07T05:09:45;2.28;;;0.93;;
42134;SDS011;28312;43.460;11.810;2023-12-07T05:13:49;2.00;;;1.30;;
42134;SDS011;28312;43.460;11.810;2023-12-07T05:17:52;1.60;;;0.90;;
42134;SDS011;28312;43.460;11.810;2023-12-07T05:22:00;2.15;;;1.00;;
42134;SDS011;28312;43.460;11.810;2023-12-07T05:30:07;2.05;;;0.90;;
42134;SDS011;28312;43.460;11.810;2023-12-07T05:34:12;2.75;;;1.10;;
42134;SDS011;28312;43.460;11.810;2023-12-07T05:38:16;2.28;;;1.00;;
42134;SDS011;28312;43.460;11.810;2023-12-07T05:42:19;1.83;;;1.08;;
42134;SDS011;28312;43.460;11.810;2023-12-07T05:46:23;3.67;;;2.55;;
42134;SDS011;28312;43.460;11.810;2023-12-07T05:50:27;4.65;;;2.33;;
42134;SDS011;28312;43.460;11.810;2023-12-07T05:54:32;1.67;;;1.15;;
42134;SDS011;28312;43.460;11.810;2023-12-07T05:58:37;2.20;;;1.50;;
42134;SDS011;28312;43.460;11.810;2023-12-07T06:02:41;1.20;;;0.85;;
42134;SDS011;28312;43.460;11.810;2023-12-07T06:06:44;2.42;;;1.55;;
42134;SDS011;28312;43.460;11.810;2023-12-07T06:10:48;1.63;;;1.00;;
42134;SDS011;28312;43.460;11.810;2023-12-07T06:14:52;1.52;;;1.00;;
42134;SDS011;28312;43.460;11.810;2023-12-07T06:18:56;1.10;;;0.63;;
42134;SDS011;28312;43.460;11.810;2023-12-07T06:23:03;1.52;;;0.90;;
42134;SDS011;28312;43.460;11.810;2023-12-07T06:27:07;2.47;;;1.60;;
42134;SDS011;28312;43.460;11.810;2023-12-07T06:31:12;1.35;;;0.90;;
42134;SDS011;28312;43.460;11.810;2023-12-07T06:35:18;1.23;;;0.90;;
42134;SDS011;28312;43.460;11.810;2023-12-07T06:39:23;1.52;;;0.63;;
42134;SDS011;28312;43.460;11.810;2023-12-07T06:43:26;1.85;;;0.80;;
42134;SDS011;28312;43.460;11.810;2023-12-07T06:47:30;2.50;;;1.20;;
42134;SDS011;28312;43.460;11.810;2023-12-07T06:51:34;2.28;;;0.90;;
42134;SDS011;28312;43.460;11.810;2023-12-07T06:55:37;0.90;;;0.60;;
42134;SDS011;28312;43.460;11.810;2023-12-07T06:59:47;1.70;;;0.88;;
42134;SDS011;28312;43.460;11.810;2023-12-07T07:03:51;2.63;;;1.65;;
42134;SDS011;28312;43.460;11.810;2023-12-07T07:07:55;1.58;;;1.00;;
42134;SDS011;28312;43.460;11.810;2023-12-07T07:11:58;1.17;;;0.77;;
42134;SDS011;28312;43.460;11.810;2023-12-07T07:16:02;1.42;;;0.80;;
42134;SDS011;28312;43.460;11.810;2023-12-07T07:20:09;1.27;;;0.68;;
42134;SDS011;28312;43.460;11.810;2023-12-07T07:28:44;2.92;;;1.20;;
42134;SDS011;28312;43.460;11.810;2023-12-07T07:32:52;1.52;;;1.10;;
42134;SDS011;28312;43.460;11.810;2023-12-07T07:36:56;1.92;;;1.13;;
42134;SDS011;28312;43.460;11.810;2023-12-07T07:41:00;1.38;;;0.82;;
42134;SDS011;28312;43.460;11.810;2023-12-07T07:45:03;2.08;;;1.08;;
42134;SDS011;28312;43.460;11.810;2023-12-07T07:49:09;3.35;;;1.92;;
42134;SDS011;28312;43.460;11.810;2023-12-07T07:53:12;2.85;;;1.13;;
42134;SDS011;28312;43.460;11.810;2023-12-07T07:57:16;1.73;;;1.10;;
42134;SDS011;28312;43.460;11.810;2023-12-07T08:01:20;1.38;;;0.98;;
42134;SDS011;28312;43.460;11.810;2023-12-07T08:05:24;2.90;;;1.25;;
42134;SDS011;28312;43.460;11.810;2023-12-07T08:09:27;2.85;;;1.58;;
42134;SDS011;28312;43.460;11.810;2023-12-07T08:13:31;2.50;;;1.60;;
42134;SDS011;28312;43.460;11.810;2023-12-07T08:17:35;3.00;;;1.60;;
42134;SDS011;28312;43.460;11.810;2023-12-07T08:21:39;2.55;;;1.65;;
42134;SDS011;28312;43.460;11.810;2023-12-07T08:25:43;2.58;;;1.55;;
42134;SDS011;28312;43.460;11.810;2023-12-07T08:29:46;2.92;;;1.77;;
42134;SDS011;28312;43.460;11.810;2023-12-07T08:33:50;2.67;;;1.27;;
42134;SDS011;28312;43.460;11.810;2023-12-07T08:37:55;6.10;;;2.28;;
42134;SDS011;28312;43.460;11.810;2023-12-07T08:41:58;2.75;;;1.50;;
42134;SDS011;28312;43.460;11.810;2023-12-07T08:46:02;3.47;;;1.00;;
42134;SDS011;28312;43.460;11.810;2023-12-07T08:50:07;1.55;;;0.98;;
42134;SDS011;28312;43.460;11.810;2023-12-07T08:54:12;2.28;;;1.35;;
42134;SDS011;28312;43.460;11.810;2023-12-07T08:58:16;2.13;;;1.20;;
42134;SDS011;28312;43.460;11.810;2023-12-07T09:02:19;3.33;;;2.17;;
42134;SDS011;28312;43.460;11.810;2023-12-07T09:06:39;2.65;;;1.40;;
42134;SDS011;28312;43.460;11.810;2023-12-07T09:10:43;3.58;;;1.08;;
42134;SDS011;28312;43.460;11.810;2023-12-07T09:14:46;3.25;;;1.30;;
42134;SDS011;28312;43.460;11.810;2023-12-07T09:18:50;2.33;;;1.50;;
42134;SDS011;28312;43.460;11.810;2023-12-07T09:22:53;5.90;;;1.65;;
42134;SDS011;28312;43.460;11.810;2023-12-07T09:27:02;4.27;;;1.83;;
42134;SDS011;28312;43.460;11.810;2023-12-07T09:31:06;5.25;;;2.30;;
42134;SDS011;28312;43.460;11.810;2023-12-07T09:35:11;4.63;;;2.05;;
42134;SDS011;28312;43.460;11.810;2023-12-07T09:39:22;5.10;;;2.90;;
42134;SDS011;28312;43.460;11.810;2023-12-07T09:43:28;3.00;;;2.10;;
42134;SDS011;28312;43.460;11.810;2023-12-07T09:47:31;4.60;;;2.33;;
42134;SDS011;28312;43.460;11.810;2023-12-07T09:51:40;5.20;;;3.22;;
42134;SDS011;28312;43.460;11.810;2023-12-07T09:55:46;4.35;;;2.78;;
42134;SDS011;28312;43.460;11.810;2023-12-07T09:59:50;6.88;;;2.85;;
42134;SDS011;28312;43.460;11.810;2023-12-07T10:08:29;5.13;;;3.50;;
42134;SDS011;28312;43.460;11.810;2023-12-07T10:12:34;5.20;;;3.58;;
42134;SDS011;28312;43.460;11.810;2023-12-07T10:16:38;7.30;;;2.90;;
42134;SDS011;28312;43.460;11.810;2023-12-07T10:20:44;4.90;;;3.00;;
42134;SDS011;28312;43.460;11.810;2023-12-07T10:24:49;5.10;;;2.40;;
42134;SDS011;28312;43.460;11.810;2023-12-07T10:28:53;5.13;;;2.97;;
42134;SDS011;28312;43.460;11.810;2023-12-07T10:32:57;3.38;;;2.33;;
42134;SDS011;28312;43.460;11.810;2023-12-07T10:37:01;5.25;;;3.28;;
42134;SDS011;28312;43.460;11.810;2023-12-07T10:41:07;3.58;;;2.10;;
42134;SDS011;28312;43.460;11.810;2023-12-07T10:45:15;5.38;;;2.72;;
42134;SDS011;28312;43.460;11.810;2023-12-07T10:49:20;4.38;;;2.35;;
42134;SDS011;28312;43.460;11.810;2023-12-07T10:53:43;3.40;;;2.33;;
42134;SDS011;28312;43.460;11.810;2023-12-07T10:57:48;4.18;;;2.72;;
42134;SDS011;28312;43.460;11.810;2023-12-07T11:01:52;4.85;;;2.97;;
42134;SDS011;28312;43.460;11.810;2023-12-07T11:05:56;5.07;;;3.53;;
42134;SDS011;28312;43.460;11.810;2023-12-07T11:10:03;4.47;;;3.28;;
42134;SDS011;28312;43.460;11.810;2023-12-07T11:14:14;6.00;;;3.50;;
42134;SDS011;28312;43.460;11.810;2023-12-07T11:18:19;5.00;;;3.60;;
42134;SDS011;28312;43.460;11.810;2023-12-07T11:22:23;6.57;;;3.60;;
42134;SDS011;28312;43.460;11.810;2023-12-07T11:26:29;6.50;;;4.70;;
42134;SDS011;28312;43.460;11.810;2023-12-07T11:30:35;6.43;;;3.85;;
42134;SDS011;28312;43.460;11.810;2023-12-07T11:34:41;6.43;;;4.85;;
42134;SDS011;28312;43.460;11.810;2023-12-07T11:43:04;3.95;;;2.95;;
42134;SDS011;28312;43.460;11.810;2023-12-07T11:47:08;8.63;;;4.00;;
42134;SDS011;28312;43.460;11.810;2023-12-07T11:51:12;8.98;;;5.90;;
42134;SDS011;28312;43.460;11.810;2023-12-07T11:55:16;8.20;;;5.03;;
42134;SDS011;28312;43.460;11.810;2023-12-07T11:59:20;6.22;;;3.50;;
42134;SDS011;28312;43.460;11.810;2023-12-07T12:03:35;7.97;;;6.15;;
42134;SDS011;28312;43.460;11.810;2023-12-07T12:07:39;4.32;;;3.25;;
42134;SDS011;28312;43.460;11.810;2023-12-07T12:11:46;7.30;;;3.08;;
42134;SDS011;28312;43.460;11.810;2023-12-07T12:15:50;4.88;;;3.22;;
42134;SDS011;28312;43.460;11.810;2023-12-07T12:19:53;8.00;;;4.00;;
42134;SDS011;28312;43.460;11.810;2023-12-07T12:23:57;5.80;;;3.60;;
42134;SDS011;28312;43.460;11.810;2023-12-07T12:28:02;5.25;;;3.40;;
42134;SDS011;28312;43.460;11.810;2023-12-07T12:32:10;4.28;;;2.72;;
42134;SDS011;28312;43.460;11.810;2023-12-07T12:36:13;5.30;;;3.23;;
42134;SDS011;28312;43.460;11.810;2023-12-07T12:40:18;4.63;;;2.83;;
42134;SDS011;28312;43.460;11.810;2023-12-07T12:44:24;4.63;;;3.25;;
42134;SDS011;28312;43.460;11.810;2023-12-07T12:53:00;5.05;;;2.58;;
42134;SDS011;28312;43.460;11.810;2023-12-07T12:57:07;8.18;;;4.65;;
42134;SDS011;28312;43.460;11.810;2023-12-07T13:01:11;8.57;;;5.75;;
42134;SDS011;28312;43.460;11.810;2023-12-07T13:05:15;6.05;;;3.95;;
42134;SDS011;28312;43.460;11.810;2023-12-07T13:09:19;12.73;;;7.70;;
42134;SDS011;28312;43.460;11.810;2023-12-07T13:13:24;9.98;;;6.82;;
42134;SDS011;28312;43.460;11.810;2023-12-07T13:17:28;10.60;;;6.60;;
42134;SDS011;28312;43.460;11.810;2023-12-07T13:21:32;11.18;;;7.38;;
42134;SDS011;28312;43.460;11.810;2023-12-07T13:25:36;8.68;;;5.78;;
42134;SDS011;28312;43.460;11.810;2023-12-07T13:29:39;9.85;;;5.15;;
42134;SDS011;28312;43.460;11.810;2023-12-07T13:33:45;10.10;;;7.00;;
42134;SDS011;28312;43.460;11.810;2023-12-07T13:37:58;8.05;;;5.50;;
42134;SDS011;28312;43.460;11.810;2023-12-07T13:42:01;5.55;;;3.80;;
42134;SDS011;28312;43.460;11.810;2023-12-07T13:50:13;8.68;;;6.40;;
42134;SDS011;28312;43.460;11.810;2023-12-07T13:54:17;8.55;;;6.65;;
42134;SDS011;28312;43.460;11.810;2023-12-07T13:58:41;6.55;;;4.45;;
42134;SDS011;28312;43.460;11.810;2023-12-07T14:02:44;10.50;;;6.20;;
42134;SDS011;28312;43.460;11.810;2023-12-07T14:06:48;9.00;;;5.22;;
42134;SDS011;28312;43.460;11.810;2023-12-07T14:10:52;7.32;;;4.63;;
42134;SDS011;28312;43.460;11.810;2023-12-07T14:14:55;11.15;;;6.53;;
42134;SDS011;28312;43.460;11.810;2023-12-07T14:18:59;12.10;;;8.77;;
42134;SDS011;28312;43.460;11.810;2023-12-07T14:23:16;9.35;;;6.40;;
42134;SDS011;28312;43.460;11.810;2023-12-07T14:27:19;5.57;;;3.45;;
42134;SDS011;28312;43.460;11.810;2023-12-07T14:31:24;7.15;;;3.90;;
42134;SDS011;28312;43.460;11.810;2023-12-07T14:35:28;7.88;;;4.57;;
42134;SDS011;28312;43.460;11.810;2023-12-07T14:39:36;6.10;;;3.72;;
42134;SDS011;28312;43.460;11.810;2023-12-07T14:43:41;5.30;;;3.22;;
42134;SDS011;28312;43.460;11.810;2023-12-07T14:47:45;10.55;;;5.00;;
42134;SDS011;28312;43.460;11.810;2023-12-07T14:51:49;5.43;;;3.20;;
42134;SDS011;28312;43.460;11.810;2023-12-07T14:55:54;10.73;;;6.30;;
42134;SDS011;28312;43.460;11.810;2023-12-07T15:00:00;10.00;;;7.13;;
42134;SDS011;28312;43.460;11.810;2023-12-07T15:04:07;8.90;;;5.18;;
42134;SDS011;28312;43.460;11.810;2023-12-07T15:08:22;7.25;;;4.22;;
42134;SDS011;28312;43.460;11.810;2023-12-07T15:12:26;6.22;;;3.95;;
42134;SDS011;28312;43.460;11.810;2023-12-07T15:16:32;9.50;;;5.25;;
42134;SDS011;28312;43.460;11.810;2023-12-07T15:20:36;7.50;;;3.60;;
42134;SDS011;28312;43.460;11.810;2023-12-07T15:24:39;5.93;;;3.63;;
42134;SDS011;28312;43.460;11.810;2023-12-07T15:28:43;7.55;;;3.17;;
42134;SDS011;28312;43.460;11.810;2023-12-07T15:32:46;5.30;;;2.78;;
42134;SDS011;28312;43.460;11.810;2023-12-07T15:36:50;5.63;;;3.20;;
42134;SDS011;28312;43.460;11.810;2023-12-07T15:40:54;4.78;;;2.45;;
42134;SDS011;28312;43.460;11.810;2023-12-07T15:44:58;4.10;;;2.55;;
42134;SDS011;28312;43.460;11.810;2023-12-07T15:49:04;7.72;;;3.30;;
42134;SDS011;28312;43.460;11.810;2023-12-07T15:53:08;5.80;;;2.90;;
42134;SDS011;28312;43.460;11.810;2023-12-07T15:57:12;6.13;;;3.20;;
42134;SDS011;28312;43.460;11.810;2023-12-07T16:01:15;3.85;;;2.13;;
42134;SDS011;28312;43.460;11.810;2023-12-07T16:05:19;5.63;;;2.67;;
42134;SDS011;28312;43.460;11.810;2023-12-07T16:09:24;4.53;;;2.40;;
42134;SDS011;28312;43.460;11.810;2023-12-07T16:13:27;6.65;;;3.42;;
42134;SDS011;28312;43.460;11.810;2023-12-07T16:17:31;3.80;;;2.33;;
42134;SDS011;28312;43.460;11.810;2023-12-07T16:21:35;4.72;;;2.53;;
42134;SDS011;28312;43.460;11.810;2023-12-07T16:25:40;4.07;;;2.40;;
42134;SDS011;28312;43.460;11.810;2023-12-07T16:29:45;4.70;;;2.45;;
42134;SDS011;28312;43.460;11.810;2023-12-07T16:33:49;5.75;;;2.92;;
42134;SDS011;28312;43.460;11.810;2023-12-07T16:37:59;4.22;;;2.33;;
42134;SDS011;28312;43.460;11.810;2023-12-07T16:42:03;5.10;;;2.55;;
42134;SDS011;28312;43.460;11.810;2023-12-07T16:46:06;7.03;;;3.08;;
42134;SDS011;28312;43.460;11.810;2023-12-07T16:50:11;5.28;;;3.10;;
42134;SDS011;28312;43.460;11.810;2023-12-07T16:54:15;6.70;;;3.58;;
42134;SDS011;28312;43.460;11.810;2023-12-07T16:58:18;5.93;;;3.30;;
42134;SDS011;28312;43.460;11.810;2023-12-07T17:02:31;8.93;;;3.28;;
42134;SDS011;28312;43.460;11.810;2023-12-07T17:06:36;4.05;;;2.60;;
42134;SDS011;28312;43.460;11.810;2023-12-07T17:10:56;5.13;;;2.65;;
42134;SDS011;28312;43.460;11.810;2023-12-07T17:15:00;5.32;;;2.63;;
42134;SDS011;28312;43.460;11.810;2023-12-07T17:19:04;6.45;;;2.78;;
42134;SDS011;28312;43.460;11.810;2023-12-07T17:23:08;5.93;;;3.33;;
42134;SDS011;28312;43.460;11.810;2023-12-07T17:27:12;7.18;;;3.17;;
42134;SDS011;28312;43.460;11.810;2023-12-07T17:31:16;5.72;;;2.53;;
42134;SDS011;28312;43.460;11.810;2023-12-07T17:35:20;4.35;;;2.60;;
42134;SDS011;28312;43.460;11.810;2023-12-07T17:39:25;4.28;;;2.05;;
42134;SDS011;28312;43.460;11.810;2023-12-07T17:43:28;5.72;;;2.85;;
42134;SDS011;28312;43.460;11.810;2023-12-07T17:47:32;6.35;;;2.65;;
42134;SDS011;28312;43.460;11.810;2023-12-07T17:51:36;6.72;;;2.80;;
42134;SDS011;28312;43.460;11.810;2023-12-07T17:55:41;7.88;;;4.38;;
42134;SDS011;28312;43.460;11.810;2023-12-07T17:59:44;10.68;;;5.60;;
42134;SDS011;28312;43.460;11.810;2023-12-07T18:03:48;12.73;;;7.50;;
42134;SDS011;28312;43.460;11.810;2023-12-07T18:07:52;6.30;;;3.30;;
42134;SDS011;28312;43.460;11.810;2023-12-07T18:11:59;6.60;;;3.58;;
42134;SDS011;28312;43.460;11.810;2023-12-07T18:16:03;8.80;;;4.78;;
42134;SDS011;28312;43.460;11.810;2023-12-07T18:20:06;11.20;;;6.40;;
42134;SDS011;28312;43.460;11.810;2023-12-07T18:24:10;25.88;;;8.95;;
42134;SDS011;28312;43.460;11.810;2023-12-07T18:28:15;23.27;;;9.45;;
42134;SDS011;28312;43.460;11.810;2023-12-07T18:32:19;18.45;;;11.43;;
42134;SDS011;28312;43.460;11.810;2023-12-07T18:36:24;8.07;;;4.10;;
42134;SDS011;28312;43.460;11.810;2023-12-07T18:40:32;10.70;;;6.43;;
42134;SDS011;28312;43.460;11.810;2023-12-07T18:44:35;7.45;;;3.70;;
42134;SDS011;28312;43.460;11.810;2023-12-07T18:48:39;8.07;;;3.97;;
42134;SDS011;28312;43.460;11.810;2023-12-07T18:52:43;5.22;;;3.00;;
42134;SDS011;28312;43.460;11.810;2023-12-07T18:56:47;6.32;;;3.00;;
42134;SDS011;28312;43.460;11.810;2023-12-07T19:00:53;6.00;;;2.53;;
42134;SDS011;28312;43.460;11.810;2023-12-07T19:04:58;7.20;;;2.83;;
42134;SDS011;28312;43.460;11.810;2023-12-07T19:09:02;6.28;;;2.53;;
42134;SDS011;28312;43.460;11.810;2023-12-07T19:17:12;3.50;;;1.90;;
42134;SDS011;28312;43.460;11.810;2023-12-07T19:21:16;3.88;;;2.15;;
42134;SDS011;28312;43.460;11.810;2023-12-07T19:25:20;6.63;;;3.92;;
42134;SDS011;28312;43.460;11.810;2023-12-07T19:29:24;32.55;;;8.68;;
42134;SDS011;28312;43.460;11.810;2023-12-07T19:33:27;8.55;;;3.90;;
42134;SDS011;28312;43.460;11.810;2023-12-07T19:37:35;6.15;;;2.05;;
42134;SDS011;28312;43.460;11.810;2023-12-07T19:41:39;6.22;;;3.00;;
42134;SDS011;28312;43.460;11.810;2023-12-07T19:45:43;5.38;;;3.00;;
42134;SDS011;28312;43.460;11.810;2023-12-07T19:49:48;5.22;;;2.53;;
42134;SDS011;28312;43.460;11.810;2023-12-07T19:53:52;4.85;;;2.63;;
42134;SDS011;28312;43.460;11.810;2023-12-07T19:57:56;7.65;;;3.22;;
42134;SDS011;28312;43.460;11.810;2023-12-07T20:02:05;8.05;;;3.50;;
42134;SDS011;28312;43.460;11.810;2023-12-07T20:06:09;5.35;;;3.10;;
42134;SDS011;28312;43.460;11.810;2023-12-07T20:10:13;8.50;;;3.42;;
42134;SDS011;28312;43.460;11.810;2023-12-07T20:14:16;7.18;;;3.33;;
42134;SDS011;28312;43.460;11.810;2023-12-07T20:18:20;6.30;;;3.47;;
42134;SDS011;28312;43.460;11.810;2023-12-07T20:22:24;9.68;;;6.05;;
42134;SDS011;28312;43.460;11.810;2023-12-07T20:26:28;10.68;;;4.13;;
42134;SDS011;28312;43.460;11.810;2023-12-07T20:30:31;5.63;;;3.00;;
42134;SDS011;28312;43.460;11.810;2023-12-07T20:34:35;6.10;;;2.53;;
42134;SDS011;28312;43.460;11.810;2023-12-07T20:38:38;4.93;;;2.40;;
42134;SDS011;28312;43.460;11.810;2023-12-07T20:42:42;4.65;;;2.63;;
42134;SDS011;28312;43.460;11.810;2023-12-07T20:46:46;5.70;;;2.95;;
42134;SDS011;28312;43.460;11.810;2023-12-07T20:50:50;9.68;;;3.80;;
42134;SDS011;28312;43.460;11.810;2023-12-07T20:54:53;6.15;;;4.07;;
42134;SDS011;28312;43.460;11.810;2023-12-07T20:58:57;5.18;;;3.20;;
42134;SDS011;28312;43.460;11.810;2023-12-07T21:03:00;5.68;;;2.95;;
42134;SDS011;28312;43.460;11.810;2023-12-07T21:07:04;6.80;;;4.05;;
42134;SDS011;28312;43.460;11.810;2023-12-07T21:11:08;9.63;;;4.55;;
42134;SDS011;28312;43.460;11.810;2023-12-07T21:15:12;5.53;;;3.00;;
42134;SDS011;28312;43.460;11.810;2023-12-07T21:19:15;6.00;;;3.20;;
42134;SDS011;28312;43.460;11.810;2023-12-07T21:23:21;7.85;;;3.42;;
42134;SDS011;28312;43.460;11.810;2023-12-07T21:27:26;6.00;;;3.42;;
42134;SDS011;28312;43.460;11.810;2023-12-07T21:31:32;4.27;;;2.73;;
42134;SDS011;28312;43.460;11.810;2023-12-07T21:35:35;6.97;;;2.83;;
42134;SDS011;28312;43.460;11.810;2023-12-07T21:39:42;6.47;;;4.05;;
42134;SDS011;28312;43.460;11.810;2023-12-07T21:43:46;5.20;;;2.88;;
42134;SDS011;28312;43.460;11.810;2023-12-07T21:47:51;5.40;;;3.42;;
42134;SDS011;28312;43.460;11.810;2023-12-07T21:51:55;6.28;;;3.38;;
42134;SDS011;28312;43.460;11.810;2023-12-07T21:55:59;6.38;;;3.28;;
42134;SDS011;28312;43.460;11.810;2023-12-07T22:00:04;5.10;;;2.75;;
42134;SDS011;28312;43.460;11.810;2023-12-07T22:04:14;5.50;;;2.60;;
42134;SDS011;28312;43.460;11.810;2023-12-07T22:08:18;5.72;;;3.33;;
42134;SDS011;28312;43.460;11.810;2023-12-07T22:12:21;4.32;;;2.38;;
42134;SDS011;28312;43.460;11.810;2023-12-07T22:16:25;5.18;;;2.50;;
42134;SDS011;28312;43.460;11.810;2023-12-07T22:20:28;4.97;;;2.92;;
42134;SDS011;28312;43.460;11.810;2023-12-07T22:24:32;6.18;;;3.22;;
42134;SDS011;28312;43.460;11.810;2023-12-07T22:28:37;4.82;;;2.33;;
42134;SDS011;28312;43.460;11.810;2023-12-07T22:32:40;3.97;;;2.10;;
42134;SDS011;28312;43.460;11.810;2023-12-07T22:36:44;4.28;;;2.38;;
42134;SDS011;28312;43.460;11.810;2023-12-07T22:40:49;6.30;;;2.90;;
42134;SDS011;28312;43.460;11.810;2023-12-07T22:44:54;5.05;;;3.10;;
42134;SDS011;28312;43.460;11.810;2023-12-07T22:53:17;3.55;;;1.88;;
42134;SDS011;28312;43.460;11.810;2023-12-07T22:57:21;4.90;;;2.75;;
42134;SDS011;28312;43.460;11.810;2023-12-07T23:01:25;4.47;;;2.80;;
42134;SDS011;28312;43.460;11.810;2023-12-07T23:05:28;4.60;;;2.17;;
42134;SDS011;28312;43.460;11.810;2023-12-07T23:09:32;4.03;;;2.17;;
42134;SDS011;28312;43.460;11.810;2023-12-07T23:13:36;6.45;;;3.20;;
42134;SDS011;28312;43.460;11.810;2023-12-07T23:17:39;8.85;;;4.65;;
42134;SDS011;28312;43.460;11.810;2023-12-07T23:21:43;7.57;;;3.50;;
42134;SDS011;28312;43.460;11.810;2023-12-07T23:25:46;6.45;;;3.47;;
42134;SDS011;28312;43.460;11.810;2023-12-07T23:29:50;6.00;;;3.10;;
42134;SDS011;28312;43.460;11.810;2023-12-07T23:38:00;5.38;;;2.85;;
42134;SDS011;28312;43.460;11.810;2023-12-07T23:42:05;12.27;;;6.07;;
42134;SDS011;28312;43.460;11.810;2023-12-07T23:46:09;18.40;;;6.07;;
42134;SDS011;28312;43.460;11.810;2023-12-07T23:50:13;5.82;;;3.00;;
42134;SDS011;28312;43.460;11.810;2023-12-07T23:54:17;13.02;;;7.68;;
42134;SDS011;28312;43.460;11.810;2023-12-07T23:58:21;6.60;;;3.83;;
